createdAt,value
2018-04-17T00:00:19.955Z,99.99
2018-04-17T00:01:20.193Z,99.99
2018-04-17T00:02:20.433Z,99.99
2018-04-17T00:03:20.675Z,99.99
2018-04-17T00:04:20.914Z,99.99
2018-04-17T00:05:21.155Z,99.27
2018-04-17T00:06:21.411Z,99.13
2018-04-17T00:07:21.639Z,98.94
2018-04-17T00:08:21.876Z,98.94
2018-04-17T00:09:22.118Z,98.36
2018-04-17T00:10:22.367Z,98.65
2018-04-17T00:11:22.597Z,98.84
2018-04-17T00:12:22.836Z,98.36
2018-04-17T00:13:23.076Z,98.65
2018-04-17T00:14:23.316Z,98.55
2018-04-17T00:15:23.557Z,98.65
2018-04-17T00:16:23.797Z,98.55
2018-04-17T00:17:24.038Z,97.89
2018-04-17T00:18:24.277Z,97.99
2018-04-17T00:19:24.517Z,97.13
2018-04-17T00:20:24.756Z,98.18
2018-04-17T00:21:24.996Z,98.46
2018-04-17T00:22:25.237Z,98.22
2018-04-17T00:23:25.478Z,97.93
2018-04-17T00:24:25.720Z,98.03
2018-04-17T00:25:25.959Z,98.22
2018-04-17T00:26:26.200Z,97.74
2018-04-17T00:27:26.439Z,97.84
2018-04-17T00:28:26.680Z,97.93
2018-04-17T00:29:26.923Z,97.93
2018-04-17T00:30:27.160Z,98.74
2018-04-17T00:31:27.400Z,98.74
2018-04-17T00:32:27.676Z,99.02
2018-04-17T00:33:27.881Z,99.22
2018-04-17T00:34:28.122Z,99.31
2018-04-17T00:35:28.363Z,99.22
2018-04-17T00:36:28.602Z,99.60
2018-04-17T00:37:28.846Z,99.99
2018-04-17T00:38:29.083Z,99.99
2018-04-17T00:39:29.327Z,99.99
2018-04-17T00:40:29.564Z,99.99
2018-04-17T00:41:29.805Z,99.99
2018-04-17T00:42:30.045Z,99.99
2018-04-17T00:43:30.285Z,99.99
2018-04-17T00:44:30.526Z,99.99
2018-04-17T00:45:30.766Z,99.99
2018-04-17T00:46:31.006Z,99.99
2018-04-17T00:47:31.248Z,99.99
2018-04-17T00:48:31.487Z,99.99
2018-04-17T00:49:31.728Z,99.99
2018-04-17T00:50:31.967Z,99.99
2018-04-17T00:51:32.209Z,99.99
2018-04-17T00:52:32.448Z,99.99
2018-04-17T00:53:32.688Z,99.99
2018-04-17T00:54:32.917Z,99.99
2018-04-17T00:55:33.157Z,99.99
2018-04-17T00:56:33.398Z,99.99
2018-04-17T00:57:33.639Z,99.99
2018-04-17T00:58:33.879Z,99.99
2018-04-17T00:59:34.120Z,99.99
2018-04-17T01:00:34.358Z,99.99
2018-04-17T01:01:34.606Z,99.99
2018-04-17T01:02:34.843Z,99.99
2018-04-17T01:03:35.085Z,99.99
2018-04-17T01:04:35.324Z,99.99
2018-04-17T01:05:35.565Z,99.99
2018-04-17T01:06:35.814Z,99.99
2018-04-17T01:07:36.048Z,99.99
2018-04-17T01:08:36.287Z,99.99
2018-04-17T01:09:36.528Z,99.99
2018-04-17T01:10:36.770Z,99.99
2018-04-17T01:11:37.008Z,99.99
2018-04-17T01:12:37.250Z,99.99
2018-04-17T01:13:37.492Z,99.99
2018-04-17T01:14:37.733Z,99.99
2018-04-17T01:15:37.973Z,99.99
2018-04-17T01:16:38.216Z,99.99
2018-04-17T01:17:38.456Z,99.99
2018-04-17T01:18:38.696Z,99.99
2018-04-17T01:19:38.938Z,99.99
2018-04-17T01:20:39.179Z,99.99
2018-04-17T01:21:39.421Z,99.99
2018-04-17T01:22:39.662Z,99.99
2018-04-17T01:23:39.904Z,99.99
2018-04-17T01:24:40.145Z,99.99
2018-04-17T01:25:40.387Z,99.99
2018-04-17T01:26:40.627Z,99.99
2018-04-17T01:27:40.864Z,99.99
2018-04-17T01:28:41.106Z,99.99
2018-04-17T01:29:41.344Z,99.99
2018-04-17T01:30:41.584Z,99.99
2018-04-17T01:31:41.829Z,99.99
2018-04-17T01:32:42.071Z,99.99
2018-04-17T01:33:42.311Z,99.99
2018-04-17T01:34:42.553Z,99.99
2018-04-17T01:35:42.796Z,99.99
2018-04-17T01:36:43.037Z,99.99
2018-04-17T01:37:43.277Z,99.99
2018-04-17T01:38:43.518Z,99.99
2018-04-17T01:39:43.758Z,99.99
2018-04-17T01:40:44.003Z,99.99
2018-04-17T01:41:44.245Z,99.99
2018-04-17T01:42:44.487Z,99.99
2018-04-17T01:43:44.729Z,99.99
2018-04-17T01:44:44.969Z,99.99
2018-04-17T01:45:45.213Z,99.99
2018-04-17T01:46:45.453Z,99.99
2018-04-17T01:47:45.694Z,99.99
2018-04-17T01:48:45.936Z,99.99
2018-04-17T01:49:46.174Z,99.99
2018-04-17T01:50:46.418Z,99.99
2018-04-17T01:51:46.657Z,99.99
2018-04-17T01:52:46.900Z,99.99
2018-04-17T01:53:47.139Z,99.99
2018-04-17T01:54:47.382Z,99.99
2018-04-17T01:55:47.623Z,99.99
2018-04-17T01:56:47.864Z,99.99
2018-04-17T01:57:48.105Z,99.99
2018-04-17T01:58:48.340Z,99.99
2018-04-17T01:59:48.585Z,99.99
2018-04-17T02:00:48.824Z,99.99
2018-04-17T02:01:49.062Z,99.99
2018-04-17T02:02:49.300Z,99.99
2018-04-17T02:03:49.542Z,99.99
2018-04-17T02:04:49.781Z,99.99
2018-04-17T02:05:50.022Z,99.99
2018-04-17T02:06:50.261Z,99.99
2018-04-17T02:07:50.501Z,99.99
2018-04-17T02:08:50.743Z,99.99
2018-04-17T02:09:50.986Z,99.99
2018-04-17T02:10:51.224Z,99.99
2018-04-17T02:11:51.462Z,99.99
2018-04-17T02:12:51.704Z,99.99
2018-04-17T02:13:51.948Z,99.99
2018-04-17T02:14:52.184Z,99.99
2018-04-17T02:15:52.427Z,99.99
2018-04-17T02:16:52.666Z,99.99
2018-04-17T02:17:52.908Z,99.99
2018-04-17T02:18:53.150Z,99.99
2018-04-17T02:19:53.387Z,99.99
2018-04-17T02:20:53.627Z,99.99
2018-04-17T02:21:53.867Z,99.99
2018-04-17T02:22:54.109Z,99.99
2018-04-17T02:23:54.349Z,99.99
2018-04-17T02:24:54.596Z,99.99
2018-04-17T02:25:54.829Z,99.99
2018-04-17T02:26:55.070Z,99.99
2018-04-17T02:27:55.365Z,99.99
2018-04-17T02:28:55.544Z,99.99
2018-04-17T02:29:55.783Z,99.99
2018-04-17T02:30:56.025Z,99.99
2018-04-17T02:31:56.267Z,99.99
2018-04-17T02:32:56.505Z,99.99
2018-04-17T02:33:56.747Z,99.99
2018-04-17T02:34:56.985Z,99.99
2018-04-17T02:35:57.223Z,99.99
2018-04-17T02:36:57.468Z,99.99
2018-04-17T02:37:57.701Z,99.99
2018-04-17T02:38:57.944Z,99.99
2018-04-17T02:39:58.180Z,99.99
2018-04-17T02:40:58.420Z,99.99
2018-04-17T02:41:58.659Z,99.99
2018-04-17T02:42:58.904Z,99.99
2018-04-17T02:43:59.140Z,99.99
2018-04-17T02:44:59.379Z,99.99
2018-04-17T02:45:59.617Z,99.99
2018-04-17T02:46:59.856Z,99.99
2018-04-17T02:48:00.097Z,99.99
2018-04-17T02:49:00.337Z,99.99
2018-04-17T02:50:00.576Z,99.99
2018-04-17T02:51:00.818Z,99.99
2018-04-17T02:52:01.065Z,99.99
2018-04-17T02:53:01.295Z,99.99
2018-04-17T02:54:01.535Z,99.99
2018-04-17T02:55:01.770Z,99.99
2018-04-17T02:56:02.034Z,99.99
2018-04-17T02:57:02.271Z,99.99
2018-04-17T02:58:02.488Z,99.99
2018-04-17T02:59:02.730Z,99.99
2018-04-17T03:00:02.971Z,99.99
2018-04-17T03:01:03.213Z,99.99
2018-04-17T03:02:03.455Z,99.99
2018-04-17T03:03:03.693Z,99.99
2018-04-17T03:04:03.936Z,99.99
2018-04-17T03:05:04.173Z,99.99
2018-04-17T03:06:04.413Z,99.99
2018-04-17T03:07:04.659Z,99.99
2018-04-17T03:08:04.908Z,99.99
2018-04-17T03:09:05.139Z,99.99
2018-04-17T03:10:05.378Z,99.99
2018-04-17T03:11:05.620Z,99.99
2018-04-17T03:12:05.865Z,99.99
2018-04-17T03:13:06.107Z,99.99
2018-04-17T03:14:06.353Z,99.99
2018-04-17T03:15:06.594Z,99.99
2018-04-17T03:16:06.834Z,99.99
2018-04-17T03:17:07.077Z,99.99
2018-04-17T03:18:07.322Z,99.99
2018-04-17T03:19:07.557Z,99.99
2018-04-17T03:20:07.799Z,99.99
2018-04-17T03:21:08.040Z,99.99
2018-04-17T03:22:08.279Z,99.99
2018-04-17T03:23:08.522Z,99.99
2018-04-17T03:24:08.758Z,99.99
2018-04-17T03:25:09.002Z,99.99
2018-04-17T03:26:09.241Z,99.99
2018-04-17T03:27:09.483Z,99.99
2018-04-17T03:28:09.722Z,99.99
2018-04-17T03:29:09.964Z,99.99
2018-04-17T03:30:10.205Z,99.99
2018-04-17T03:31:10.445Z,99.99
2018-04-17T03:32:10.683Z,99.99
2018-04-17T03:33:10.924Z,99.99
2018-04-17T03:34:11.164Z,99.99
2018-04-17T03:35:11.413Z,99.99
2018-04-17T03:36:11.645Z,99.99
2018-04-17T03:37:11.887Z,99.99
2018-04-17T03:38:12.123Z,99.99
2018-04-17T03:39:12.362Z,99.99
2018-04-17T03:40:12.603Z,99.99
2018-04-17T03:41:12.847Z,99.99
2018-04-17T03:42:13.085Z,99.99
2018-04-17T03:43:13.326Z,99.99
2018-04-17T03:44:13.565Z,99.99
2018-04-17T03:45:13.807Z,99.99
2018-04-17T03:46:14.061Z,99.99
2018-04-17T03:47:14.289Z,99.99
2018-04-17T03:48:14.528Z,99.99
2018-04-17T03:49:14.770Z,99.99
2018-04-17T03:50:15.010Z,99.99
2018-04-17T03:51:15.251Z,99.99
2018-04-17T03:52:15.493Z,99.99
2018-04-17T03:53:15.733Z,99.99
2018-04-17T03:54:15.977Z,99.99
2018-04-17T03:55:16.216Z,99.99
2018-04-17T03:56:16.460Z,99.99
2018-04-17T03:57:16.698Z,99.99
2018-04-17T03:58:16.938Z,99.99
2018-04-17T03:59:17.182Z,99.99
2018-04-17T04:00:17.425Z,99.99
2018-04-17T04:01:17.669Z,99.99
2018-04-17T04:02:17.911Z,99.99
2018-04-17T04:03:18.157Z,99.99
2018-04-17T04:04:18.397Z,99.99
2018-04-17T04:05:18.639Z,99.99
2018-04-17T04:06:18.880Z,99.99
2018-04-17T04:07:19.124Z,99.99
2018-04-17T04:08:19.364Z,99.99
2018-04-17T04:09:19.603Z,99.99
2018-04-17T04:10:19.844Z,99.99
2018-04-17T04:11:20.088Z,99.99
2018-04-17T04:12:20.327Z,99.99
2018-04-17T04:13:20.567Z,99.99
2018-04-17T04:14:20.810Z,99.99
2018-04-17T04:15:21.053Z,99.99
2018-04-17T04:16:21.295Z,99.99
2018-04-17T04:17:21.535Z,99.99
2018-04-17T04:18:21.778Z,99.99
2018-04-17T04:19:22.018Z,99.99
2018-04-17T04:20:22.258Z,99.99
2018-04-17T04:21:22.498Z,99.99
2018-04-17T04:22:22.738Z,99.99
2018-04-17T04:23:22.981Z,99.99
2018-04-17T04:24:23.224Z,99.99
2018-04-17T04:25:23.463Z,99.99
2018-04-17T04:26:23.702Z,99.99
2018-04-17T04:27:23.946Z,99.99
2018-04-17T04:28:24.183Z,99.99
2018-04-17T04:29:24.421Z,99.99
2018-04-17T04:30:24.670Z,99.99
2018-04-17T04:31:24.912Z,99.99
2018-04-17T04:32:25.153Z,99.99
2018-04-17T04:33:25.400Z,99.99
2018-04-17T04:34:25.635Z,99.99
2018-04-17T04:35:25.876Z,99.99
2018-04-17T04:36:26.121Z,99.99
2018-04-17T04:37:26.357Z,99.99
2018-04-17T04:38:26.598Z,99.99
2018-04-17T04:39:26.838Z,99.99
2018-04-17T04:40:27.069Z,99.99
2018-04-17T04:41:27.311Z,99.99
2018-04-17T04:42:27.555Z,99.99
2018-04-17T04:43:27.796Z,99.99
2018-04-17T04:44:28.035Z,99.99
2018-04-17T04:45:28.277Z,99.99
2018-04-17T04:46:28.514Z,99.99
2018-04-17T04:47:28.756Z,99.99
2018-04-17T04:48:28.997Z,99.99
2018-04-17T04:49:29.239Z,99.99
2018-04-17T04:50:29.477Z,99.99
2018-04-17T04:51:29.718Z,99.99
2018-04-17T04:52:29.957Z,99.99
2018-04-17T04:53:30.197Z,99.99
2018-04-17T04:54:30.436Z,99.99
2018-04-17T04:55:30.679Z,99.99
2018-04-17T04:56:30.917Z,99.99
2018-04-17T04:57:31.158Z,99.99
2018-04-17T04:58:31.397Z,99.99
2018-04-17T04:59:31.638Z,99.99
2018-04-17T05:00:31.876Z,99.99
2018-04-17T05:01:32.117Z,99.99
2018-04-17T05:02:32.359Z,99.99
2018-04-17T05:03:32.598Z,99.99
2018-04-17T05:04:32.839Z,99.99
2018-04-17T05:05:33.084Z,99.99
2018-04-17T05:06:33.356Z,99.99
2018-04-17T05:07:33.599Z,99.99
2018-04-17T05:08:33.842Z,99.99
2018-04-17T05:09:34.082Z,99.99
2018-04-17T05:10:34.320Z,99.99
2018-04-17T05:11:34.561Z,99.99
2018-04-17T05:12:34.806Z,99.99
2018-04-17T05:13:35.045Z,99.99
2018-04-17T05:14:35.531Z,99.99
2018-04-17T05:15:35.533Z,99.99
2018-04-17T05:16:35.772Z,99.99
2018-04-17T05:17:36.022Z,99.99
2018-04-17T05:18:36.255Z,99.99
2018-04-17T05:19:36.511Z,99.99
2018-04-17T05:20:36.734Z,99.99
2018-04-17T05:21:36.975Z,99.99
2018-04-17T05:22:37.215Z,99.99
2018-04-17T05:23:37.455Z,99.99
2018-04-17T05:24:37.694Z,99.99
2018-04-17T05:25:37.933Z,99.99
2018-04-17T05:26:38.173Z,99.99
2018-04-17T05:27:38.413Z,99.99
2018-04-17T05:28:38.652Z,99.99
2018-04-17T05:29:38.893Z,99.99
2018-04-17T05:30:39.131Z,99.99
2018-04-17T05:31:39.374Z,99.99
2018-04-17T05:32:39.613Z,99.99
2018-04-17T05:33:39.853Z,99.99
2018-04-17T05:34:40.092Z,99.99
2018-04-17T05:35:40.331Z,99.99
2018-04-17T05:36:40.573Z,99.99
2018-04-17T05:37:40.814Z,99.99
2018-04-17T05:38:41.053Z,99.99
2018-04-17T05:39:41.295Z,99.99
2018-04-17T05:40:41.536Z,99.99
2018-04-17T05:41:41.775Z,99.55
2018-04-17T05:42:42.018Z,99.08
2018-04-17T05:43:42.257Z,99.46
2018-04-17T05:44:42.499Z,99.36
2018-04-17T05:45:42.739Z,99.36
2018-04-17T05:46:42.980Z,99.03
2018-04-17T05:47:43.222Z,97.79
2018-04-17T05:48:43.462Z,97.99
2018-04-17T05:49:43.706Z,97.60
2018-04-17T05:50:43.947Z,97.22
2018-04-17T05:51:44.185Z,96.70
2018-04-17T05:52:44.430Z,96.70
2018-04-17T05:53:44.670Z,96.51
2018-04-17T05:54:44.910Z,96.03
2018-04-17T05:55:45.161Z,96.03
2018-04-17T05:56:45.393Z,95.46
2018-04-17T05:57:45.636Z,94.60
2018-04-17T05:58:45.877Z,94.98
2018-04-17T05:59:46.120Z,95.17
2018-04-17T06:00:46.361Z,94.51
2018-04-17T06:01:46.604Z,94.32
2018-04-17T06:02:46.844Z,94.51
2018-04-17T06:03:47.090Z,94.51
2018-04-17T06:04:47.325Z,94.37
2018-04-17T06:05:47.568Z,94.60
2018-04-17T06:06:47.808Z,94.89
2018-04-17T06:07:48.053Z,93.79
2018-04-17T06:08:48.293Z,93.79
2018-04-17T06:09:48.535Z,93.79
2018-04-17T06:10:48.777Z,94.17
2018-04-17T06:11:49.020Z,94.08
2018-04-17T06:12:49.259Z,93.98
2018-04-17T06:13:49.503Z,93.79
2018-04-17T06:14:49.745Z,93.51
2018-04-17T06:15:49.989Z,93.17
2018-04-17T06:16:50.227Z,92.79
2018-04-17T06:17:50.468Z,92.03
2018-04-17T06:18:50.712Z,91.07
2018-04-17T06:19:50.952Z,91.46
2018-04-17T06:20:51.194Z,91.31
2018-04-17T06:21:51.437Z,90.36
2018-04-17T06:22:51.679Z,89.50
2018-04-17T06:23:51.924Z,89.59
2018-04-17T06:24:52.168Z,88.83
2018-04-17T06:25:52.411Z,88.30
2018-04-17T06:26:52.656Z,87.82
2018-04-17T06:27:52.897Z,87.73
2018-04-17T06:28:53.140Z,87.77
2018-04-17T06:29:53.383Z,86.72
2018-04-17T06:30:53.627Z,86.72
2018-04-17T06:31:53.868Z,87.01
2018-04-17T06:32:54.112Z,85.96
2018-04-17T06:33:54.354Z,84.47
2018-04-17T06:34:54.597Z,84.28
2018-04-17T06:35:54.841Z,84.09
2018-04-17T06:36:55.084Z,83.33
2018-04-17T06:37:55.327Z,81.02
2018-04-17T06:38:55.569Z,76.65
2018-04-17T06:39:55.815Z,75.64
2018-04-17T06:40:56.057Z,72.74
2018-04-17T06:41:56.312Z,70.32
2018-04-17T06:42:56.543Z,68.73
2018-04-17T06:43:56.788Z,66.46
2018-04-17T06:44:57.033Z,65.33
2018-04-17T06:45:57.277Z,63.79
2018-04-17T06:46:57.528Z,65.27
2018-04-17T06:47:57.768Z,64.92
2018-04-17T06:48:58.018Z,63.79
2018-04-17T06:49:58.263Z,61.91
2018-04-17T06:50:58.501Z,60.91
2018-04-17T06:51:58.746Z,63.83
2018-04-17T06:52:58.992Z,64.82
2018-04-17T06:53:59.238Z,62.16
2018-04-17T06:54:59.488Z,61.52
2018-04-17T06:55:59.727Z,60.97
2018-04-17T06:56:59.972Z,59.24
2018-04-17T06:58:00.268Z,59.63
2018-04-17T06:59:00.463Z,60.17
2018-04-17T07:00:00.709Z,61.84
2018-04-17T07:01:00.955Z,61.91
2018-04-17T07:02:01.201Z,60.39
2018-04-17T07:03:01.448Z,58.70
2018-04-17T07:04:01.695Z,57.67
2018-04-17T07:05:01.940Z,56.80
2018-04-17T07:06:02.189Z,56.80
2018-04-17T07:07:02.433Z,55.67
2018-04-17T07:08:02.680Z,55.02
2018-04-17T07:09:02.931Z,54.13
2018-04-17T07:10:03.173Z,53.39
2018-04-17T07:11:03.422Z,52.61
2018-04-17T07:12:03.673Z,52.61
2018-04-17T07:13:03.923Z,52.06
2018-04-17T07:14:04.169Z,51.58
2018-04-17T07:15:04.411Z,50.84
2018-04-17T07:16:04.658Z,50.84
2018-04-17T07:17:04.911Z,50.38
2018-04-17T07:18:05.152Z,49.96
2018-04-17T07:19:05.400Z,50.74
2018-04-17T07:20:05.648Z,50.67
2018-04-17T07:21:05.895Z,49.80
2018-04-17T07:22:06.134Z,49.22
2018-04-17T07:23:06.389Z,48.66
2018-04-17T07:24:06.634Z,47.89
2018-04-17T07:25:06.881Z,47.89
2018-04-17T07:26:07.133Z,47.72
2018-04-17T07:27:07.382Z,48.49
2018-04-17T07:28:07.628Z,47.81
2018-04-17T07:29:07.877Z,48.59
2018-04-17T07:30:08.128Z,48.49
2018-04-17T07:31:08.375Z,48.21
2018-04-17T07:32:08.624Z,48.59
2018-04-17T07:33:08.874Z,48.52
2018-04-17T07:34:09.123Z,47.58
2018-04-17T07:35:09.371Z,46.80
2018-04-17T07:36:09.622Z,45.64
2018-04-17T07:37:09.871Z,46.12
2018-04-17T07:38:10.119Z,45.47
2018-04-17T07:39:10.370Z,45.37
2018-04-17T07:40:10.621Z,45.10
2018-04-17T07:41:10.870Z,43.75
2018-04-17T07:42:11.122Z,43.75
2018-04-17T07:43:11.372Z,43.27
2018-04-17T07:44:11.626Z,43.15
2018-04-17T07:45:11.871Z,44.87
2018-04-17T07:46:12.122Z,44.73
2018-04-17T07:47:12.374Z,44.15
2018-04-17T07:48:12.624Z,45.79
2018-04-17T07:49:12.875Z,46.10
2018-04-17T07:50:13.128Z,46.08
2018-04-17T07:51:13.376Z,47.12
2018-04-17T07:52:13.627Z,48.35
2018-04-17T07:53:13.877Z,48.06
2018-04-17T07:54:14.128Z,50.16
2018-04-17T07:55:14.380Z,50.71
2018-04-17T07:56:14.640Z,50.13
2018-04-17T07:57:14.884Z,52.49
2018-04-17T07:58:15.132Z,55.07
2018-04-17T07:59:15.383Z,57.51
2018-04-17T08:00:15.634Z,59.60
2018-04-17T08:01:15.884Z,61.94
2018-04-17T08:02:16.136Z,63.03
2018-04-17T08:03:16.387Z,65.72
2018-04-17T08:04:16.638Z,65.94
2018-04-17T08:05:16.889Z,68.21
2018-04-17T08:06:17.139Z,69.52
2018-04-17T08:07:17.387Z,66.26
2018-04-17T08:08:17.667Z,61.61
2018-04-17T08:09:17.888Z,59.82
2018-04-17T08:10:18.135Z,59.69
2018-04-17T08:11:18.384Z,61.27
2018-04-17T08:12:18.634Z,63.92
2018-04-17T08:13:18.883Z,64.40
2018-04-17T08:14:19.134Z,63.35
2018-04-17T08:15:19.386Z,59.47
2018-04-17T08:16:19.634Z,56.51
2018-04-17T08:17:19.888Z,52.83
2018-04-17T08:18:20.135Z,50.90
2018-04-17T08:19:20.382Z,52.42
2018-04-17T08:20:20.631Z,50.09
2018-04-17T08:21:20.880Z,47.91
2018-04-17T08:22:21.129Z,45.35
2018-04-17T08:23:21.380Z,43.17
2018-04-17T08:24:21.628Z,42.20
2018-04-17T08:25:21.878Z,41.93
2018-04-17T08:26:22.128Z,40.67
2018-04-17T08:27:22.378Z,41.56
2018-04-17T08:28:22.629Z,40.79
2018-04-17T08:29:22.880Z,39.74
2018-04-17T08:30:23.132Z,40.33
2018-04-17T08:31:23.387Z,38.50
2018-04-17T08:32:23.636Z,36.97
2018-04-17T08:33:23.892Z,38.60
2018-04-17T08:34:24.140Z,36.60
2018-04-17T08:35:24.392Z,36.22
2018-04-17T08:36:24.646Z,35.08
2018-04-17T08:37:24.896Z,34.22
2018-04-17T08:38:25.150Z,33.81
2018-04-17T08:39:25.403Z,35.49
2018-04-17T08:40:25.655Z,35.86
2018-04-17T08:41:25.912Z,35.10
2018-04-17T08:42:26.169Z,35.05
2018-04-17T08:43:26.421Z,35.92
2018-04-17T08:44:26.676Z,36.05
2018-04-17T08:45:26.929Z,35.37
2018-04-17T08:46:27.183Z,35.78
2018-04-17T08:47:27.436Z,36.99
2018-04-17T08:48:27.691Z,36.89
2018-04-17T08:49:27.944Z,36.24
2018-04-17T08:50:28.198Z,34.14
2018-04-17T08:51:28.453Z,33.95
2018-04-17T08:52:28.706Z,35.29
2018-04-17T08:53:28.962Z,33.73
2018-04-17T08:54:29.229Z,34.14
2018-04-17T08:55:29.470Z,37.01
2018-04-17T08:56:29.727Z,36.85
2018-04-17T08:57:29.980Z,33.56
2018-04-17T08:58:30.236Z,33.48
2018-04-17T08:59:30.495Z,33.20
2018-04-17T09:00:30.751Z,31.92
2018-04-17T09:01:31.005Z,33.15
2018-04-17T09:02:31.261Z,33.64
2018-04-17T09:03:31.517Z,35.47
2018-04-17T09:04:31.774Z,33.67
2018-04-17T09:05:32.028Z,33.36
2018-04-17T09:06:32.288Z,33.33
2018-04-17T09:07:32.540Z,35.53
2018-04-17T09:08:32.796Z,34.67
2018-04-17T09:09:33.052Z,34.24
2018-04-17T09:10:33.310Z,31.13
2018-04-17T09:11:33.566Z,29.11
2018-04-17T09:12:33.822Z,28.74
2018-04-17T09:13:34.081Z,27.87
2018-04-17T09:14:34.334Z,25.36
2018-04-17T09:15:34.594Z,24.98
2018-04-17T09:16:34.850Z,25.56
2018-04-17T09:17:35.106Z,26.66
2018-04-17T09:18:35.365Z,27.23
2018-04-17T09:19:35.618Z,24.78
2018-04-17T09:20:35.878Z,25.07
2018-04-17T09:21:36.136Z,25.05
2018-04-17T09:22:36.395Z,24.49
2018-04-17T09:23:36.648Z,24.19
2018-04-17T09:24:36.906Z,23.90
2018-04-17T09:25:37.165Z,24.19
2018-04-17T09:26:37.422Z,25.16
2018-04-17T09:27:37.695Z,26.52
2018-04-17T09:28:37.940Z,25.26
2018-04-17T09:29:38.197Z,23.80
2018-04-17T09:30:38.457Z,24.10
2018-04-17T09:31:38.715Z,24.32
2018-04-17T09:32:39.027Z,23.44
2018-04-17T09:33:39.234Z,22.76
2018-04-17T09:34:39.489Z,22.73
2018-04-17T09:35:39.747Z,25.59
2018-04-17T09:36:40.006Z,29.60
2018-04-17T09:37:40.264Z,31.74
2018-04-17T09:38:40.522Z,31.19
2018-04-17T09:39:40.783Z,28.99
2018-04-17T09:40:41.038Z,28.50
2018-04-17T09:41:41.297Z,28.03
2018-04-17T09:42:41.556Z,27.62
2018-04-17T09:43:41.804Z,29.11
2018-04-17T09:44:42.063Z,26.61
2018-04-17T09:45:42.320Z,25.07
2018-04-17T09:46:42.579Z,23.22
2018-04-17T09:47:42.836Z,25.08
2018-04-17T09:48:43.094Z,23.93
2018-04-17T09:49:43.351Z,23.44
2018-04-17T09:50:43.611Z,24.51
2018-04-17T09:51:43.868Z,24.61
2018-04-17T09:52:44.134Z,24.51
2018-04-17T09:53:44.389Z,25.76
2018-04-17T09:54:44.650Z,23.73
2018-04-17T09:55:44.939Z,22.95
2018-04-17T09:56:45.163Z,21.98
2018-04-17T09:57:45.427Z,22.28
2018-04-17T09:58:45.683Z,23.26
2018-04-17T09:59:45.940Z,23.37
2018-04-17T10:00:46.204Z,21.70
2018-04-17T10:01:46.465Z,22.27
2018-04-17T10:02:46.718Z,22.81
2018-04-17T10:03:46.976Z,23.03
2018-04-17T10:04:47.240Z,22.86
2018-04-17T10:05:47.496Z,22.84
2018-04-17T10:06:47.754Z,25.14
2018-04-17T10:07:48.014Z,24.39
2018-04-17T10:08:48.269Z,25.96
2018-04-17T10:09:48.531Z,23.15
2018-04-17T10:10:48.792Z,23.05
2018-04-17T10:11:49.051Z,22.87
2018-04-17T10:12:49.311Z,21.89
2018-04-17T10:13:49.570Z,21.80
2018-04-17T10:14:49.828Z,23.36
2018-04-17T10:15:50.088Z,22.19
2018-04-17T10:16:50.347Z,22.09
2018-04-17T10:17:50.607Z,23.34
2018-04-17T10:18:50.868Z,25.91
2018-04-17T10:19:51.128Z,28.03
2018-04-17T10:20:51.388Z,26.20
2018-04-17T10:21:51.647Z,25.34
2018-04-17T10:22:51.908Z,23.69
2018-04-17T10:23:52.167Z,23.82
2018-04-17T10:24:52.428Z,24.11
2018-04-17T10:25:52.687Z,25.35
2018-04-17T10:26:52.947Z,26.40
2018-04-17T10:27:53.206Z,28.32
2018-04-17T10:28:53.465Z,27.64
2018-04-17T10:29:53.772Z,29.38
2018-04-17T10:30:53.985Z,32.06
2018-04-17T10:31:54.245Z,33.44
2018-04-17T10:32:54.504Z,31.63
2018-04-17T10:33:54.763Z,31.59
2018-04-17T10:34:55.022Z,31.65
2018-04-17T10:35:55.281Z,28.11
2018-04-17T10:36:55.540Z,25.14
2018-04-17T10:37:55.802Z,23.13
2018-04-17T10:38:56.058Z,21.60
2018-04-17T10:39:56.316Z,21.81
2018-04-17T10:40:56.577Z,21.85
2018-04-17T10:41:56.834Z,22.81
2018-04-17T10:42:57.093Z,20.81
2018-04-17T10:43:57.353Z,19.63
2018-04-17T10:44:57.612Z,19.05
2018-04-17T10:45:57.872Z,19.32
2018-04-17T10:46:58.133Z,20.32
2018-04-17T10:47:58.388Z,19.15
2018-04-17T10:48:58.648Z,19.71
2018-04-17T10:49:58.907Z,20.40
2018-04-17T10:50:59.165Z,20.59
2018-04-17T10:51:59.424Z,19.91
2018-04-17T10:52:59.684Z,19.45
2018-04-17T10:53:59.942Z,19.36
2018-04-17T10:55:00.201Z,18.77
2018-04-17T10:56:00.459Z,17.80
2018-04-17T10:57:00.719Z,18.85
2018-04-17T10:58:00.979Z,20.31
2018-04-17T10:59:01.237Z,20.72
2018-04-17T11:00:01.499Z,20.69
2018-04-17T11:01:01.757Z,21.67
2018-04-17T11:02:02.016Z,21.49
2018-04-17T11:03:02.276Z,19.84
2018-04-17T11:04:02.549Z,20.43
2018-04-17T11:05:02.796Z,20.36
2018-04-17T11:06:03.055Z,19.10
2018-04-17T11:07:03.316Z,20.77
2018-04-17T11:08:03.575Z,20.36
2018-04-17T11:09:03.836Z,18.99
2018-04-17T11:10:04.096Z,19.56
2018-04-17T11:11:04.355Z,21.80
2018-04-17T11:12:04.618Z,21.89
2018-04-17T11:13:04.888Z,20.72
2018-04-17T11:14:05.138Z,20.71
2018-04-17T11:15:05.402Z,20.32
2018-04-17T11:16:05.663Z,21.97
2018-04-17T11:17:05.925Z,19.95
2018-04-17T11:18:06.187Z,21.46
2018-04-17T11:19:06.450Z,21.31
2018-04-17T11:20:06.714Z,19.75
2018-04-17T11:21:06.976Z,19.47
2018-04-17T11:22:07.239Z,18.79
2018-04-17T11:23:07.500Z,18.89
2018-04-17T11:24:07.757Z,17.62
2018-04-17T11:25:08.016Z,19.07
2018-04-17T11:26:08.276Z,18.79
2018-04-17T11:27:08.535Z,18.60
2018-04-17T11:28:08.794Z,18.52
2018-04-17T11:29:09.114Z,16.66
2018-04-17T11:30:09.319Z,18.44
2018-04-17T11:31:09.576Z,17.27
2018-04-17T11:32:09.837Z,18.44
2018-04-17T11:33:10.097Z,17.83
2018-04-17T11:34:10.357Z,17.80
2018-04-17T11:35:10.618Z,18.89
2018-04-17T11:36:10.877Z,18.41
2018-04-17T11:37:11.137Z,18.70
2018-04-17T11:38:11.403Z,18.11
2018-04-17T11:39:11.659Z,20.14
2018-04-17T11:40:11.916Z,19.37
2018-04-17T11:41:12.178Z,19.76
2018-04-17T11:42:12.438Z,19.75
2018-04-17T11:43:12.703Z,21.30
2018-04-17T11:44:12.958Z,21.77
2018-04-17T11:45:13.219Z,20.51
2018-04-17T11:46:13.480Z,20.80
2018-04-17T11:47:13.739Z,22.46
2018-04-17T11:48:13.999Z,20.63
2018-04-17T11:49:14.260Z,21.37
2018-04-17T11:50:14.519Z,23.01
2018-04-17T11:51:14.780Z,22.84
2018-04-17T11:52:15.040Z,21.88
2018-04-17T11:53:15.302Z,21.49
2018-04-17T11:54:15.558Z,20.45
2018-04-17T11:55:15.818Z,19.79
2018-04-17T11:56:16.078Z,19.89
2018-04-17T11:57:16.340Z,18.21
2018-04-17T11:58:16.598Z,19.96
2018-04-17T11:59:16.862Z,19.69
2018-04-17T12:00:17.125Z,18.04
2018-04-17T12:01:17.381Z,17.26
2018-04-17T12:02:17.676Z,17.07
2018-04-17T12:03:17.900Z,16.09
2018-04-17T12:04:18.160Z,17.05
2018-04-17T12:05:18.420Z,21.54
2018-04-17T12:06:18.681Z,25.56
2018-04-17T12:07:18.940Z,26.83
2018-04-17T12:08:19.200Z,26.81
2018-04-17T12:09:19.462Z,28.64
2018-04-17T12:10:19.720Z,27.50
2018-04-17T12:11:19.979Z,27.31
2018-04-17T12:12:20.240Z,27.53
2018-04-17T12:13:20.499Z,29.41
2018-04-17T12:14:20.759Z,28.96
2018-04-17T12:15:21.020Z,26.58
2018-04-17T12:16:21.284Z,23.57
2018-04-17T12:17:21.536Z,23.89
2018-04-17T12:18:21.792Z,24.98
2018-04-17T12:19:22.048Z,22.66
2018-04-17T12:20:22.342Z,21.71
2018-04-17T12:21:22.569Z,20.34
2018-04-17T12:22:22.831Z,21.03
2018-04-17T12:23:23.084Z,19.67
2018-04-17T12:24:23.343Z,18.96
2018-04-17T12:25:23.601Z,23.25
2018-04-17T12:26:23.860Z,26.71
2018-04-17T12:27:24.119Z,26.14
2018-04-17T12:28:24.380Z,25.51
2018-04-17T12:29:24.639Z,24.43
2018-04-17T12:30:24.898Z,25.19
2018-04-17T12:31:25.157Z,25.07
2018-04-17T12:32:25.415Z,27.75
2018-04-17T12:33:25.675Z,26.32
2018-04-17T12:34:25.954Z,26.83
2018-04-17T12:35:26.221Z,28.97
2018-04-17T12:36:26.478Z,30.32
2018-04-17T12:37:26.736Z,29.50
2018-04-17T12:38:26.980Z,28.89
2018-04-17T12:39:27.266Z,25.81
2018-04-17T12:40:27.515Z,24.07
2018-04-17T12:41:27.773Z,23.75
2018-04-17T12:42:28.022Z,23.30
2018-04-17T12:43:28.277Z,23.83
2018-04-17T12:44:28.538Z,22.77
2018-04-17T12:45:28.799Z,20.35
2018-04-17T12:46:29.060Z,19.78
2018-04-17T12:47:29.311Z,20.71
2018-04-17T12:48:29.571Z,23.46
2018-04-17T12:49:29.830Z,24.54
2018-04-17T12:50:30.092Z,25.13
2018-04-17T12:51:30.349Z,24.28
2018-04-17T12:52:30.608Z,23.14
2018-04-17T12:53:30.867Z,22.25
2018-04-17T12:54:31.123Z,25.12
2018-04-17T12:55:31.382Z,26.95